createdAt,value
2022-10-18T00:01:13.952Z,16.65
2022-10-18T00:04:54.710Z,16.64
2022-10-18T00:08:34.306Z,16.62
2022-10-18T00:12:13.017Z,16.61
2022-10-18T00:16:13.810Z,16.67
2022-10-18T00:19:29.363Z,16.66
2022-10-18T00:23:06.651Z,16.63
2022-10-18T00:26:45.201Z,16.60
2022-10-18T00:30:41.726Z,16.59
2022-10-18T00:34:03.257Z,16.52
2022-10-18T00:37:40.235Z,16.50
2022-10-18T00:41:26.247Z,16.52
2022-10-18T00:45:25.019Z,16.53
2022-10-18T00:49:24.961Z,16.54
2022-10-18T00:52:48.973Z,16.53
2022-10-18T00:56:26.951Z,16.52
2022-10-18T01:00:10.131Z,16.48
2022-10-18T01:03:47.509Z,16.47
2022-10-18T01:07:44.850Z,16.44
2022-10-18T01:11:46.081Z,16.40
2022-10-18T01:15:30.812Z,16.36
2022-10-18T01:19:42.387Z,16.37
2022-10-18T01:23:33.833Z,16.41
2022-10-18T01:27:59.780Z,16.44
2022-10-18T01:30:51.366Z,16.42
2022-10-18T01:34:34.161Z,16.39
2022-10-18T01:38:18.241Z,16.34
2022-10-18T01:41:57.899Z,16.25
2022-10-18T01:45:35.235Z,16.19
2022-10-18T01:49:33.112Z,16.15
2022-10-18T01:52:52.996Z,16.11
2022-10-18T01:56:39.483Z,16.08
2022-10-18T02:00:42.752Z,16.13
2022-10-18T02:04:26.064Z,16.14
2022-10-18T02:08:23.281Z,16.10
2022-10-18T02:12:04.168Z,16.05
2022-10-18T02:15:46.154Z,15.99
2022-10-18T02:19:31.145Z,15.94
2022-10-18T02:23:11.906Z,15.91
2022-10-18T02:26:49.945Z,15.93
2022-10-18T02:30:36.749Z,15.95
2022-10-18T02:34:24.742Z,15.93
2022-10-18T02:38:04.791Z,15.94
2022-10-18T02:41:42.359Z,15.92
2022-10-18T02:45:21.783Z,15.91
2022-10-18T02:48:58.784Z,15.88
2022-10-18T02:52:36.575Z,15.83
2022-10-18T02:56:14.127Z,15.81
2022-10-18T02:59:53.305Z,15.78
2022-10-18T03:03:30.121Z,15.79
2022-10-18T03:07:07.914Z,15.77
2022-10-18T03:11:05.029Z,15.77
2022-10-18T03:14:23.440Z,15.74
2022-10-18T03:18:01.352Z,15.73
2022-10-18T03:21:57.557Z,15.71
2022-10-18T03:25:16.915Z,15.68
2022-10-18T03:28:54.272Z,15.68
2022-10-18T03:32:32.890Z,15.69
2022-10-18T03:36:10.407Z,15.68
2022-10-18T03:40:09.756Z,15.70
2022-10-18T03:43:26.048Z,15.63
2022-10-18T03:47:03.303Z,15.58
2022-10-18T03:50:40.921Z,15.52
2022-10-18T03:54:19.436Z,15.47
2022-10-18T03:57:56.782Z,15.47
2022-10-18T04:01:36.568Z,15.48
2022-10-18T04:05:14.604Z,15.50
2022-10-18T04:08:51.701Z,15.52
2022-10-18T04:12:30.389Z,15.48
2022-10-18T04:16:08.030Z,15.44
2022-10-18T04:19:45.471Z,15.42
2022-10-18T04:23:25.101Z,15.40
2022-10-18T04:27:02.310Z,15.37
2022-10-18T04:30:40.109Z,15.38
2022-10-18T04:34:17.719Z,15.41
2022-10-18T04:37:55.706Z,15.43
2022-10-18T04:41:33.145Z,15.41
2022-10-18T04:45:11.824Z,15.39
2022-10-18T04:48:49.010Z,15.38
2022-10-18T04:52:27.341Z,15.34
2022-10-18T04:56:04.582Z,15.31
2022-10-18T04:59:42.440Z,15.28
2022-10-18T05:03:20.066Z,15.25
2022-10-18T05:06:58.121Z,15.25
2022-10-18T05:10:35.338Z,15.27
2022-10-18T05:14:13.314Z,15.18
2022-10-18T05:17:50.834Z,15.10
2022-10-18T05:21:29.087Z,15.04
2022-10-18T05:25:07.375Z,14.91
2022-10-18T05:28:44.517Z,14.91
2022-10-18T05:32:22.124Z,14.95
2022-10-18T05:36:00.008Z,15.05
2022-10-18T05:39:38.570Z,15.12
2022-10-18T05:43:18.297Z,15.17
2022-10-18T05:46:55.913Z,15.22
2022-10-18T05:50:36.649Z,15.28
2022-10-18T05:54:17.331Z,15.31
2022-10-18T05:57:54.580Z,15.38
2022-10-18T06:01:32.395Z,15.47
2022-10-18T06:05:12.457Z,15.56
2022-10-18T06:08:49.961Z,15.67
2022-10-18T06:12:27.840Z,15.74
2022-10-18T06:16:05.492Z,15.84
2022-10-18T06:19:44.765Z,16.05
2022-10-18T06:23:21.868Z,16.47
2022-10-18T06:27:09.154Z,17.10
2022-10-18T06:30:48.147Z,17.48
2022-10-18T06:34:25.440Z,17.39
2022-10-18T06:38:02.853Z,17.29
2022-10-18T06:41:40.650Z,17.33
2022-10-18T06:45:29.299Z,17.36
2022-10-18T06:49:06.442Z,17.33
2022-10-18T06:52:44.337Z,17.44
2022-10-18T06:56:22.287Z,17.66
2022-10-18T06:59:59.550Z,17.94
2022-10-18T07:03:37.467Z,18.54
2022-10-18T07:07:15.059Z,19.18
2022-10-18T07:10:53.584Z,19.86
2022-10-18T07:14:31.466Z,20.72
2022-10-18T07:18:28.405Z,21.58
2022-10-18T07:21:46.872Z,22.27
2022-10-18T07:25:25.924Z,22.73
2022-10-18T07:29:12.355Z,23.28
2022-10-18T07:32:51.898Z,23.82
2022-10-18T07:36:29.328Z,24.23
2022-10-18T07:40:07.359Z,24.44
2022-10-18T07:43:47.740Z,24.78
2022-10-18T07:47:24.813Z,25.03
2022-10-18T07:51:03.126Z,25.17
2022-10-18T07:54:41.469Z,25.28
2022-10-18T07:58:36.694Z,25.34
2022-10-18T08:02:20.420Z,25.29
2022-10-18T08:05:57.310Z,25.21
2022-10-18T08:09:35.831Z,25.23
2022-10-18T08:13:19.498Z,25.32
2022-10-18T08:16:51.081Z,25.47
2022-10-18T08:20:31.166Z,25.51
2022-10-18T08:24:33.330Z,25.42
2022-10-18T08:27:47.120Z,25.34
2022-10-18T08:31:24.085Z,25.13
2022-10-18T08:35:03.308Z,24.84
2022-10-18T08:38:44.025Z,24.85
2022-10-18T08:42:53.184Z,24.92
2022-10-18T08:46:33.255Z,25.13
2022-10-18T08:50:17.010Z,25.29
2022-10-18T08:53:56.841Z,25.30
2022-10-18T08:57:34.054Z,24.97
2022-10-18T09:05:38.454Z,24.88
2022-10-18T09:09:33.201Z,25.04
2022-10-18T09:13:30.440Z,24.89
2022-10-18T09:17:35.967Z,24.47
2022-10-18T09:21:24.960Z,24.31
2022-10-18T09:25:24.198Z,24.14
2022-10-18T09:30:17.164Z,23.94
2022-10-18T09:33:16.497Z,23.71
2022-10-18T09:36:54.665Z,23.57
2022-10-18T09:40:37.233Z,23.54
2022-10-18T09:44:37.114Z,23.40
2022-10-18T09:48:28.500Z,23.36
2022-10-18T09:52:15.688Z,23.23
2022-10-18T09:56:01.231Z,23.24
2022-10-18T09:59:43.727Z,23.20
2022-10-18T10:03:21.332Z,23.21
2022-10-18T10:07:01.210Z,23.23
2022-10-18T10:10:47.311Z,23.16
2022-10-18T10:14:27.799Z,23.04
2022-10-18T10:18:22.056Z,23.00
2022-10-18T10:22:12.331Z,23.01
2022-10-18T10:25:54.680Z,22.94
2022-10-18T10:29:45.874Z,22.85
2022-10-18T10:33:36.972Z,22.79
2022-10-18T10:37:27.665Z,22.70
2022-10-18T10:41:04.740Z,22.58
2022-10-18T10:44:54.594Z,22.58
2022-10-18T10:48:34.859Z,22.57
2022-10-18T10:52:27.226Z,22.59
2022-10-18T10:56:30.096Z,22.55
2022-10-18T11:00:07.994Z,22.55
2022-10-18T11:03:48.451Z,22.55
2022-10-18T11:07:35.929Z,22.52
2022-10-18T11:11:36.667Z,22.45
2022-10-18T11:15:22.914Z,22.34
2022-10-18T11:19:11.013Z,22.30
2022-10-18T11:23:06.022Z,22.32
2022-10-18T11:26:50.012Z,22.37
2022-10-18T11:31:11.215Z,22.35
2022-10-18T11:34:57.345Z,22.16
2022-10-18T11:38:57.896Z,22.01
2022-10-18T11:42:53.423Z,21.80
2022-10-18T11:46:45.916Z,21.77
2022-10-18T11:50:38.749Z,21.77
2022-10-18T11:54:34.024Z,21.79
2022-10-18T11:58:38.938Z,21.81
2022-10-18T12:02:57.251Z,21.72
2022-10-18T12:06:41.445Z,21.56
2022-10-18T12:10:31.678Z,21.42
2022-10-18T12:14:38.612Z,21.29
2022-10-18T12:18:22.330Z,21.17
2022-10-18T12:22:13.931Z,21.12
2022-10-18T12:26:02.386Z,21.14
2022-10-18T12:29:59.177Z,21.21
2022-10-18T12:33:45.202Z,21.28
2022-10-18T12:37:49.931Z,21.37
2022-10-18T12:41:02.774Z,21.39
2022-10-18T12:44:41.790Z,21.51
2022-10-18T12:48:36.466Z,21.64
2022-10-18T12:52:23.698Z,21.74
2022-10-18T12:56:28.965Z,21.76
2022-10-18T13:00:30.715Z,21.77
2022-10-18T13:03:56.179Z,21.74
2022-10-18T13:07:41.636Z,21.69
2022-10-18T13:11:30.853Z,21.64
2022-10-18T13:15:25.683Z,21.59
2022-10-18T13:19:29.008Z,21.54
2022-10-18T13:23:38.220Z,21.58
2022-10-18T13:27:47.355Z,21.57
2022-10-18T13:31:29.420Z,21.52
2022-10-18T13:35:46.296Z,21.42
2022-10-18T13:39:24.396Z,21.29
2022-10-18T13:43:39.753Z,21.01
2022-10-18T13:47:34.159Z,20.56
2022-10-18T13:51:46.432Z,19.84
2022-10-18T13:55:55.803Z,19.25
2022-10-18T13:59:58.486Z,18.95
2022-10-18T14:04:04.813Z,18.51
2022-10-18T14:07:44.724Z,18.20
2022-10-18T14:11:34.872Z,17.94
2022-10-18T14:15:17.686Z,17.73
2022-10-18T14:19:09.545Z,17.55
2022-10-18T14:22:54.105Z,17.50
2022-10-18T14:26:34.026Z,17.58
2022-10-18T14:30:19.189Z,17.63
2022-10-18T14:33:58.965Z,17.67
2022-10-18T14:37:37.078Z,17.71
2022-10-18T14:41:22.672Z,17.66
2022-10-18T14:44:59.716Z,17.63
2022-10-18T14:48:38.070Z,17.62
2022-10-18T14:52:18.890Z,17.56
2022-10-18T14:56:02.594Z,17.44
2022-10-18T14:59:47.336Z,17.33
2022-10-18T15:03:25.084Z,17.28
2022-10-18T15:07:07.006Z,17.16
2022-10-18T15:10:43.759Z,17.10
2022-10-18T15:14:22.489Z,17.01
2022-10-18T15:18:00.967Z,16.82
2022-10-18T15:21:38.005Z,16.67
2022-10-18T15:25:36.755Z,16.57
2022-10-18T15:28:56.889Z,16.43
2022-10-18T15:32:34.535Z,16.37
2022-10-18T15:36:20.313Z,16.35
2022-10-18T15:40:19.891Z,16.38
2022-10-18T15:44:25.585Z,16.37
2022-10-18T15:48:17.125Z,16.35
2022-10-18T15:52:11.048Z,16.33
2022-10-18T15:55:56.074Z,16.26
2022-10-18T15:59:33.652Z,16.21
2022-10-18T16:03:11.661Z,16.16
2022-10-18T16:06:48.851Z,16.15
2022-10-18T16:10:27.302Z,16.06
2022-10-18T16:14:04.516Z,15.95
2022-10-18T16:17:41.969Z,15.90
2022-10-18T16:21:23.426Z,15.85
2022-10-18T16:25:01.846Z,15.83
2022-10-18T16:28:40.194Z,15.85
2022-10-18T16:32:17.334Z,15.86
2022-10-18T16:35:55.241Z,15.90
2022-10-18T16:39:35.319Z,15.93
2022-10-18T16:43:14.713Z,15.91
2022-10-18T16:46:53.983Z,15.88
2022-10-18T16:50:35.336Z,15.81
2022-10-18T16:54:12.737Z,15.75
2022-10-18T16:57:50.641Z,15.72
2022-10-18T17:01:28.344Z,15.75
2022-10-18T17:05:26.803Z,15.68
2022-10-18T17:09:07.741Z,15.59
2022-10-18T17:12:41.354Z,15.56
2022-10-18T17:16:44.442Z,15.57
2022-10-18T17:19:56.670Z,15.57
2022-10-18T17:23:40.452Z,15.65
2022-10-18T17:27:12.476Z,15.74
2022-10-18T17:31:41.049Z,15.76
2022-10-18T17:35:11.798Z,15.78
2022-10-18T17:38:31.236Z,15.77
2022-10-18T17:42:03.276Z,15.73
2022-10-18T17:45:54.260Z,15.73
2022-10-18T17:49:33.929Z,15.72
2022-10-18T17:53:14.525Z,15.71
2022-10-18T17:56:53.861Z,15.69
2022-10-18T18:00:32.009Z,15.68
2022-10-18T18:04:09.487Z,15.73
2022-10-18T18:07:48.329Z,15.77
2022-10-18T18:11:27.244Z,15.75
2022-10-18T18:15:04.072Z,15.66
2022-10-18T18:18:41.693Z,15.57
2022-10-18T18:22:19.827Z,15.51
2022-10-18T18:25:58.021Z,15.48
2022-10-18T18:29:34.876Z,15.52
2022-10-18T18:33:12.400Z,15.55
2022-10-18T18:36:52.384Z,15.59
2022-10-18T18:40:29.759Z,15.63
2022-10-18T18:44:07.736Z,15.66
2022-10-18T18:47:46.962Z,15.62
2022-10-18T18:51:26.599Z,15.62
2022-10-18T18:55:03.915Z,15.64
2022-10-18T18:58:44.436Z,15.62
2022-10-18T19:02:21.465Z,15.61
2022-10-18T19:06:18.304Z,15.60
2022-10-18T19:09:56.386Z,15.63
2022-10-18T19:13:34.271Z,15.75
2022-10-18T19:17:11.508Z,15.72
2022-10-18T19:20:49.268Z,15.68
2022-10-18T19:24:30.513Z,15.64
2022-10-18T19:28:07.488Z,15.63
2022-10-18T19:31:47.700Z,15.66
2022-10-18T19:35:24.462Z,15.70
2022-10-18T19:39:03.706Z,15.72
2022-10-18T19:42:40.790Z,15.66
2022-10-18T19:46:17.995Z,15.71
2022-10-18T19:49:55.943Z,15.71
2022-10-18T19:53:36.240Z,15.74
2022-10-18T19:57:13.708Z,15.73
2022-10-18T20:00:57.623Z,15.70
2022-10-18T20:04:35.531Z,15.72
2022-10-18T20:08:12.448Z,15.70
2022-10-18T20:11:50.399Z,15.71
2022-10-18T20:15:28.088Z,15.72
2022-10-18T20:19:08.342Z,15.68
2022-10-18T20:22:47.743Z,15.62
2022-10-18T20:26:26.039Z,15.56
2022-10-18T20:30:06.443Z,15.48
2022-10-18T20:33:48.529Z,15.45
2022-10-18T20:37:27.793Z,15.41
2022-10-18T20:41:10.656Z,15.38
2022-10-18T20:44:48.606Z,15.36
2022-10-18T20:48:26.506Z,15.36
2022-10-18T20:52:05.595Z,15.33
2022-10-18T20:55:44.101Z,15.26
2022-10-18T20:59:21.042Z,15.18
2022-10-18T21:02:59.301Z,15.18
2022-10-18T21:06:42.411Z,15.28
2022-10-18T21:10:19.606Z,15.39
2022-10-18T21:14:18.328Z,15.41
2022-10-18T21:17:34.661Z,15.40
2022-10-18T21:21:14.474Z,15.43
2022-10-18T21:24:51.654Z,15.44
2022-10-18T21:28:30.915Z,15.47
2022-10-18T21:32:08.118Z,15.41
2022-10-18T21:35:45.368Z,15.32
2022-10-18T21:43:08.303Z,15.28
2022-10-18T21:46:47.423Z,15.27
2022-10-18T21:50:24.754Z,15.23
2022-10-18T21:54:02.619Z,15.25
2022-10-18T21:57:58.937Z,15.26
2022-10-18T22:01:21.225Z,15.25
2022-10-18T22:04:58.825Z,15.36
2022-10-18T22:08:36.730Z,15.44
2022-10-18T22:12:13.847Z,15.36
2022-10-18T22:15:52.266Z,15.31
2022-10-18T22:19:29.823Z,15.26
2022-10-18T22:23:07.955Z,15.25
2022-10-18T22:26:46.609Z,15.24
2022-10-18T22:30:42.790Z,15.29
2022-10-18T22:34:04.996Z,15.36
2022-10-18T22:37:42.356Z,15.39
2022-10-18T22:41:20.226Z,15.39
2022-10-18T22:44:57.867Z,15.29
2022-10-18T22:48:34.974Z,15.27
2022-10-18T22:52:13.181Z,15.23
2022-10-18T22:55:51.358Z,15.07
2022-10-18T22:59:28.261Z,14.93
2022-10-18T23:03:06.451Z,14.83
2022-10-18T23:06:44.155Z,14.76
2022-10-18T23:10:21.404Z,14.70
2022-10-18T23:13:59.477Z,14.64
2022-10-18T23:17:37.104Z,14.63
2022-10-18T23:21:15.091Z,14.58
2022-10-18T23:24:54.480Z,14.52
2022-10-18T23:28:38.428Z,14.48
2022-10-18T23:32:34.721Z,14.52
2022-10-18T23:35:53.340Z,14.51
2022-10-18T23:39:30.672Z,14.44
2022-10-18T23:43:09.160Z,14.43
2022-10-18T23:46:49.068Z,14.43
2022-10-18T23:50:28.351Z,14.42
2022-10-18T23:54:05.257Z,14.38
2022-10-18T23:57:43.112Z,14.42
